Terminal Aerodrome Forecast
Issued by NWS

Home | Current Version | Previous Version | Text Only | Print | Product List | Glossary Off
Versions: 1 2 3 4 5 6 7 8 9 10 11 12 13 14 15 16 17 18 19 20 21 22

000
FTUS43 KBIS 251836 AAB
TAFJMS
TAF AMD
KJMS 251836Z 2519/2618 20020G30KT P6SM SCT200
     FM260400 25011KT P6SM BKN200
     FM260500 31013G21KT P6SM BKN200
     FM260600 35015G24KT P6SM VCSH SCT050 OVC090
     FM260900 35015G23KT P6SM SCT090=

USA.gov is the U.S. government's official web portal to all federal, state and local government web resources and services.